Time;durP1;ratioP1;P1;durP2;ratioP2;P2;SDS_P1;SDS_P2;PMS_P1;PMS_P2;Temp;Humidity;BMP_temperature;BMP_pressure;BME280_temperature;BME280_humidity;BME280_pressure;Samples;Min_cycle;Max_cycle;Signal;HPM_P1;HPM_P2
2021/01/17 00:00:17;;;;;;;32.73;25.13;;;6.10;99.90;;;;;;5013555;28;20687;-79
2021/01/17 00:02:46;;;;;;;37.40;29.20;;;6.10;99.90;;;;;;5013514;28;20209;-74
2021/01/17 00:05:14;;;;;;;32.33;25.30;;;6.10;99.90;;;;;;5013398;28;21119;-74
2021/01/17 00:07:41;;;;;;;29.43;24.87;;;6.00;99.90;;;;;;5012312;28;20216;-74
2021/01/17 00:10:09;;;;;;;30.53;24.77;;;6.10;99.90;;;;;;5012400;28;20205;-74
2021/01/17 00:12:37;;;;;;;33.90;25.70;;;6.00;99.90;;;;;;5013407;28;20219;-74
2021/01/17 00:15:06;;;;;;;32.73;26.47;;;6.00;99.90;;;;;;5012810;28;20595;-74
2021/01/17 00:17:33;;;;;;;44.27;33.60;;;6.00;99.90;;;;;;5013388;28;20217;-74
2021/01/17 00:20:00;;;;;;;41.63;31.33;;;6.00;99.90;;;;;;5012511;28;20201;-74
2021/01/17 00:22:27;;;;;;;42.63;34.47;;;6.00;99.90;;;;;;5013345;28;20204;-74
2021/01/17 00:24:53;;;;;;;33.83;28.27;;;6.10;99.90;;;;;;5013052;28;20236;-76
2021/01/17 00:27:19;;;;;;;38.30;28.73;;;6.10;99.90;;;;;;5013351;28;20583;-75
2021/01/17 00:29:46;;;;;;;30.87;26.03;;;6.10;99.90;;;;;;5012972;28;20242;-75
2021/01/17 00:32:13;;;;;;;33.10;24.60;;;6.20;99.90;;;;;;5012290;28;20585;-78
2021/01/17 00:34:40;;;;;;;27.27;22.93;;;6.20;99.90;;;;;;5012979;28;20208;-77
2021/01/17 00:37:07;;;;;;;28.60;23.20;;;6.20;99.90;;;;;;5012539;28;20219;-79
2021/01/17 00:39:34;;;;;;;34.43;24.00;;;6.20;99.90;;;;;;5013074;28;20200;-78
2021/01/17 00:42:02;;;;;;;32.23;24.57;;;6.20;99.90;;;;;;5012415;28;20676;-77
2021/01/17 00:44:28;;;;;;;34.07;23.07;;;6.20;99.90;;;;;;5013184;28;20228;-78
2021/01/17 00:46:55;;;;;;;29.33;23.87;;;6.30;99.90;;;;;;5012632;28;20212;-76
2021/01/17 00:49:21;;;;;;;30.30;23.23;;;6.30;99.90;;;;;;5012843;28;20211;-79
2021/01/17 00:51:48;;;;;;;28.37;24.03;;;6.30;99.90;;;;;;5013184;28;20212;-79
2021/01/17 00:54:16;;;;;;;35.57;24.03;;;6.30;99.90;;;;;;5011871;28;20212;-78
2021/01/17 00:56:42;;;;;;;30.87;22.83;;;6.30;99.90;;;;;;5012429;28;20228;-79
2021/01/17 00:59:10;;;;;;;34.07;23.50;;;6.30;99.90;;;;;;5012174;28;20205;-79
2021/01/17 01:01:38;;;;;;;27.97;21.80;;;6.30;99.90;;;;;;5012619;28;20219;-79
2021/01/17 01:04:05;;;;;;;22.97;18.87;;;6.30;99.90;;;;;;5011907;28;20707;-78
2021/01/17 01:06:31;;;;;;;24.50;17.97;;;6.30;99.90;;;;;;5012250;28;20211;-75
2021/01/17 01:08:58;;;;;;;25.13;18.20;;;6.40;99.90;;;;;;5011676;28;20692;-75
2021/01/17 01:11:25;;;;;;;22.07;15.77;;;6.50;99.90;;;;;;5011985;28;20577;-78
2021/01/17 01:13:51;;;;;;;16.47;12.97;;;6.50;99.90;;;;;;5012610;28;20212;-78
2021/01/17 01:16:18;;;;;;;14.23;11.07;;;6.50;99.90;;;;;;5013955;28;20204;-76
2021/01/17 01:18:45;;;;;;;12.87;10.03;;;6.50;99.90;;;;;;5023944;28;20204;-77
2021/01/17 01:21:12;;;;;;;12.17;9.33;;;6.50;99.90;;;;;;5011081;28;20208;-77
2021/01/17 01:23:38;;;;;;;11.27;7.83;;;6.60;99.90;;;;;;5011807;28;20231;-77
2021/01/17 01:26:04;;;;;;;14.77;6.43;;;6.70;99.90;;;;;;5011714;28;20219;-77
2021/01/17 01:28:32;;;;;;;7.57;5.43;;;6.80;99.90;;;;;;5012101;28;20584;-80
2021/01/17 01:30:58;;;;;;;9.07;4.97;;;7.00;99.90;;;;;;5011775;28;20204;-75
2021/01/17 01:33:25;;;;;;;9.33;4.07;;;7.10;99.90;;;;;;5011652;28;20691;-73
2021/01/17 01:35:51;;;;;;;8.77;3.43;;;7.20;99.90;;;;;;5011955;28;20240;-75
2021/01/17 01:38:18;;;;;;;5.80;2.90;;;7.30;99.90;;;;;;5011697;28;20208;-77
2021/01/17 01:40:53;;;;;;;6.93;3.43;;;7.30;99.90;;;;;;5011808;28;20580;-78
2021/01/17 01:43:21;;;;;;;4.63;3.20;;;7.40;99.90;;;;;;5011983;28;20228;-76
2021/01/17 01:45:49;;;;;;;6.33;3.23;;;7.40;99.90;;;;;;5011818;28;20270;-75
2021/01/17 01:48:16;;;;;;;3.97;2.93;;;7.40;99.90;;;;;;5010971;28;20219;-73
2021/01/17 01:50:43;;;;;;;7.83;3.73;;;7.40;99.90;;;;;;5011152;28;20216;-74
2021/01/17 01:53:10;;;;;;;5.97;3.93;;;7.50;99.90;;;;;;5011405;28;20204;-74
2021/01/17 01:55:36;;;;;;;4.13;3.27;;;7.50;99.90;;;;;;5011517;28;20224;-74
2021/01/17 01:58:06;;;;;;;4.77;3.03;;;7.50;99.90;;;;;;5011065;28;20204;-74
2021/01/17 02:00:33;;;;;;;3.57;2.80;;;7.50;99.90;;;;;;5011422;28;20204;-74
2021/01/17 02:03:00;;;;;;;8.50;3.10;;;7.60;99.90;;;;;;5010586;28;20211;-75
2021/01/17 02:05:27;;;;;;;7.20;2.70;;;7.50;99.90;;;;;;5011532;28;20208;-74
2021/01/17 02:08:32;;;;;;;6.27;3.03;;;7.40;99.90;;;;;;5011220;28;20204;-74
2021/01/17 02:11:05;;;;;;;7.63;2.67;;;7.30;99.90;;;;;;5010672;28;20208;-73
2021/01/17 02:13:37;;;;;;;10.57;3.13;;;7.40;99.90;;;;;;5010916;28;20200;-74
2021/01/17 02:16:06;;;;;;;3.63;2.70;;;7.50;99.90;;;;;;5010763;28;20205;-74
2021/01/17 02:18:37;;;;;;;7.53;2.10;;;7.60;99.90;;;;;;5011185;28;20672;-74
2021/01/17 02:21:07;;;;;;;6.27;3.00;;;7.70;99.90;;;;;;5010811;28;20254;-74
2021/01/17 02:23:40;;;;;;;8.03;2.87;;;7.80;99.90;;;;;;5011040;28;20367;-74
2021/01/17 02:26:07;;;;;;;4.67;2.57;;;7.80;99.90;;;;;;5010271;28;20212;-75
2021/01/17 02:28:34;;;;;;;4.33;2.10;;;7.90;99.90;;;;;;5010761;28;20702;-75
2021/01/17 02:31:02;;;;;;;5.80;2.80;;;7.90;99.90;;;;;;5009975;28;20208;-76
2021/01/17 02:33:31;;;;;;;4.63;2.30;;;8.00;99.90;;;;;;5010992;28;20216;-77
2021/01/17 02:36:04;;;;;;;5.10;2.60;;;8.00;99.90;;;;;;5010557;28;20211;-76
2021/01/17 02:38:45;;;;;;;6.67;3.23;;;8.00;99.90;;;;;;5010603;28;20204;-77
2021/01/17 02:41:20;;;;;;;9.77;3.37;;;8.00;99.90;;;;;;5010750;28;20204;-76
2021/01/17 02:43:47;;;;;;;3.17;2.40;;;8.10;99.90;;;;;;5010689;28;20228;-76
2021/01/17 02:46:14;;;;;;;4.07;2.33;;;8.10;99.90;;;;;;5010508;28;20326;-78
2021/01/17 02:48:41;;;;;;;2.43;1.83;;;8.00;99.90;;;;;;5010693;28;20211;-77
2021/01/17 02:51:07;;;;;;;3.87;2.00;;;8.10;99.90;;;;;;5009995;28;20211;-77
2021/01/17 02:53:40;;;;;;;4.30;2.27;;;8.10;99.90;;;;;;5011003;28;20208;-75
2021/01/17 02:56:10;;;;;;;3.63;2.27;;;8.10;99.90;;;;;;5009970;28;20215;-75
2021/01/17 02:58:41;;;;;;;6.27;2.13;;;8.10;99.90;;;;;;5010860;28;20278;-74
2021/01/17 03:01:11;;;;;;;5.50;2.17;;;8.10;99.90;;;;;;5009882;28;20701;-75
2021/01/17 03:03:41;;;;;;;4.17;1.93;;;8.20;99.90;;;;;;5010596;28;20275;-75
2021/01/17 03:06:10;;;;;;;3.63;2.10;;;8.30;99.90;;;;;;5010194;28;20212;-75
2021/01/17 03:08:38;;;;;;;4.70;2.03;;;8.40;99.90;;;;;;5010332;28;20208;-75
2021/01/17 03:11:05;;;;;;;6.60;2.67;;;8.40;99.90;;;;;;5010167;28;20208;-77
2021/01/17 03:13:33;;;;;;;3.37;2.27;;;8.40;99.90;;;;;;5010405;28;20215;-76
2021/01/17 03:16:01;;;;;;;5.47;2.13;;;8.40;99.90;;;;;;5009982;28;20211;-76
2021/01/17 03:18:27;;;;;;;7.00;2.00;;;8.40;99.90;;;;;;5010250;28;20581;-76
2021/01/17 03:20:54;;;;;;;4.30;2.27;;;8.50;99.90;;;;;;5010761;28;20220;-76
2021/01/17 03:23:20;;;;;;;4.37;2.17;;;8.50;99.90;;;;;;5010673;28;20251;-76
2021/01/17 03:25:47;;;;;;;6.60;2.40;;;8.50;99.90;;;;;;5008597;28;20258;-77
2021/01/17 03:28:14;;;;;;;5.13;1.93;;;8.50;99.90;;;;;;5009941;28;20243;-76
2021/01/17 03:30:40;;;;;;;2.13;1.63;;;8.50;99.90;;;;;;5010083;28;20601;-77
2021/01/17 03:33:08;;;;;;;4.40;1.53;;;8.50;99.90;;;;;;5009962;28;20683;-76
2021/01/17 03:35:34;;;;;;;3.07;1.90;;;8.50;99.90;;;;;;5010670;28;20243;-75
2021/01/17 03:38:00;;;;;;;4.87;1.97;;;8.60;99.90;;;;;;5009967;28;20282;-75
2021/01/17 03:40:27;;;;;;;3.93;1.57;;;8.60;99.90;;;;;;5010423;28;20211;-75
2021/01/17 03:42:53;;;;;;;3.70;1.47;;;8.70;99.90;;;;;;5010879;28;20208;-75
2021/01/17 03:45:20;;;;;;;4.57;1.97;;;8.70;99.90;;;;;;5013867;28;20235;-73
2021/01/17 03:47:46;;;;;;;2.20;1.70;;;8.80;99.90;;;;;;5013913;28;20227;-75
2021/01/17 03:50:14;;;;;;;3.60;1.97;;;8.80;99.90;;;;;;5013343;28;20255;-76
2021/01/17 03:52:40;;;;;;;5.43;1.70;;;8.80;99.90;;;;;;5013984;28;20205;-76
2021/01/17 03:55:08;;;;;;;1.40;1.30;;;8.80;99.90;;;;;;5013170;28;20216;-73
2021/01/17 03:57:34;;;;;;;3.27;1.67;;;8.90;99.90;;;;;;5013449;28;20216;-74
2021/01/17 04:00:00;;;;;;;2.50;1.20;;;8.90;99.90;;;;;;5013332;28;20267;-73
2021/01/17 04:02:27;;;;;;;3.17;1.47;;;8.90;99.90;;;;;;5013462;28;20266;-73
2021/01/17 04:04:53;;;;;;;4.20;1.50;;;9.00;99.90;;;;;;5013475;28;20647;-77
2021/01/17 04:07:21;;;;;;;3.27;1.90;;;9.00;99.90;;;;;;5013798;28;20303;-76
2021/01/17 04:09:47;;;;;;;4.47;1.43;;;9.00;99.90;;;;;;5013779;28;20635;-75
2021/01/17 04:12:13;;;;;;;2.60;1.63;;;9.00;99.90;;;;;;5012539;28;20212;-75
2021/01/17 04:14:40;;;;;;;5.80;1.90;;;9.00;99.90;;;;;;5013470;28;20215;-75
2021/01/17 04:17:06;;;;;;;3.03;1.87;;;9.10;99.90;;;;;;5013211;28;20208;-76
2021/01/17 04:19:33;;;;;;;3.33;2.20;;;9.10;99.90;;;;;;4999772;28;20212;-76
2021/01/17 04:21:59;;;;;;;2.10;1.80;;;9.10;99.90;;;;;;5013177;28;20631;-78
2021/01/17 04:24:26;;;;;;;5.60;2.37;;;9.10;99.90;;;;;;5013058;28;20600;-76
2021/01/17 04:27:00;;;;;;;3.40;1.90;;;9.10;99.90;;;;;;5012913;28;20208;-75
2021/01/17 04:29:26;;;;;;;4.20;1.53;;;9.10;99.90;;;;;;5013092;28;20211;-76
2021/01/17 04:31:53;;;;;;;2.93;1.50;;;9.10;99.90;;;;;;5012882;28;20707;-74
2021/01/17 04:34:22;;;;;;;2.37;1.70;;;9.10;99.90;;;;;;5013141;28;20204;-76
2021/01/17 04:36:49;;;;;;;2.93;1.83;;;9.10;99.90;;;;;;5011352;28;20231;-74
2021/01/17 04:39:16;;;;;;;3.03;2.00;;;9.10;99.90;;;;;;5008764;28;20208;-75
2021/01/17 04:41:46;;;;;;;1.83;1.50;;;9.10;99.90;;;;;;5012532;28;20219;-75
2021/01/17 04:44:13;;;;;;;3.37;1.50;;;9.10;99.90;;;;;;5008416;28;20610;-76
2021/01/17 04:46:42;;;;;;;4.27;1.83;;;9.10;99.90;;;;;;5012785;28;20207;-73
2021/01/17 04:49:10;;;;;;;3.43;1.40;;;9.10;99.90;;;;;;5012233;28;20220;-74
2021/01/17 04:51:36;;;;;;;2.27;1.23;;;9.10;99.90;;;;;;5012519;28;20216;-75
2021/01/17 04:54:04;;;;;;;5.37;2.43;;;9.10;99.90;;;;;;5011434;28;20208;-75
2021/01/17 04:56:32;;;;;;;3.03;2.10;;;9.10;99.90;;;;;;5010056;28;20216;-76
2021/01/17 04:59:09;;;;;;;2.67;1.80;;;9.10;99.90;;;;;;5012304;28;20204;-75
2021/01/17 05:02:03;;;;;;;5.47;3.67;;;9.20;99.90;;;;;;5012183;28;20211;-73
2021/01/17 05:04:59;;;;;;;4.43;2.07;;;9.10;99.90;;;;;;5011990;28;20288;-76
2021/01/17 05:07:35;;;;;;;2.83;1.87;;;9.20;99.90;;;;;;5008306;28;20260;-79
2021/01/17 05:10:06;;;;;;;7.77;2.53;;;9.20;99.90;;;;;;5011656;28;20208;-79
2021/01/17 05:12:38;;;;;;;4.63;1.90;;;9.20;99.90;;;;;;5012083;28;20208;-77
2021/01/17 05:15:07;;;;;;;4.60;1.67;;;9.10;99.90;;;;;;5011573;28;20745;-76
2021/01/17 05:17:41;;;;;;;3.00;1.93;;;9.00;99.90;;;;;;5012256;28;20226;-77
2021/01/17 05:20:09;;;;;;;5.30;1.97;;;9.00;99.90;;;;;;5011868;28;20204;-77
2021/01/17 05:22:36;;;;;;;2.63;1.77;;;9.00;99.90;;;;;;5009463;28;20243;-75
2021/01/17 05:25:06;;;;;;;3.27;1.80;;;9.00;99.90;;;;;;5011287;28;20251;-74
2021/01/17 05:27:33;;;;;;;3.33;1.70;;;9.00;99.90;;;;;;5023842;28;20200;-74
2021/01/17 05:29:59;;;;;;;2.63;2.13;;;9.10;99.90;;;;;;5011548;28;20208;-76
2021/01/17 05:32:27;;;;;;;1.83;1.27;;;9.10;99.90;;;;;;5002675;28;20208;-76
2021/01/17 05:34:53;;;;;;;3.57;1.60;;;9.10;99.90;;;;;;5011626;28;20667;-75
2021/01/17 05:37:20;;;;;;;1.90;1.40;;;9.10;99.90;;;;;;5012230;28;20339;-75
2021/01/17 05:39:58;;;;;;;2.90;1.97;;;9.10;99.90;;;;;;5011465;28;20203;-76
2021/01/17 05:42:27;;;;;;;2.33;1.20;;;9.10;99.90;;;;;;5011612;28;20243;-76
2021/01/17 05:44:56;;;;;;;2.77;1.20;;;9.20;99.90;;;;;;5011503;28;20314;-74
2021/01/17 05:47:24;;;;;;;4.03;1.60;;;9.30;99.90;;;;;;5011925;28;20208;-74
2021/01/17 05:49:52;;;;;;;2.90;1.63;;;9.20;99.90;;;;;;5011675;28;20690;-77
2021/01/17 05:52:19;;;;;;;3.93;1.40;;;9.20;99.90;;;;;;5011554;28;20208;-74
2021/01/17 05:54:49;;;;;;;2.87;1.40;;;9.10;99.90;;;;;;5011060;28;20266;-73
2021/01/17 05:57:17;;;;;;;4.33;1.83;;;9.10;99.90;;;;;;5011045;28;20633;-77
2021/01/17 05:59:44;;;;;;;2.80;1.47;;;9.10;99.90;;;;;;5011106;28;20597;-77
2021/01/17 06:02:15;;;;;;;2.53;1.17;;;9.10;99.90;;;;;;5010741;28;20733;-75
2021/01/17 06:04:43;;;;;;;2.87;1.10;;;9.10;99.90;;;;;;5018839;28;20231;-76
2021/01/17 06:07:14;;;;;;;4.53;1.80;;;9.10;99.90;;;;;;5010820;28;20216;-73
2021/01/17 06:09:42;;;;;;;3.33;1.70;;;9.00;99.90;;;;;;5011203;28;20216;-75
2021/01/17 06:12:10;;;;;;;2.70;1.70;;;9.10;99.90;;;;;;5010648;28;20665;-77
2021/01/17 06:14:36;;;;;;;2.87;1.10;;;9.10;99.90;;;;;;5011299;28;20234;-76
2021/01/17 06:17:04;;;;;;;2.40;1.00;;;9.10;99.90;;;;;;5010813;28;20208;-75
2021/01/17 06:19:33;;;;;;;6.63;1.43;;;9.20;99.90;;;;;;5011123;28;20208;-75
2021/01/17 06:22:01;;;;;;;1.30;1.03;;;9.10;99.90;;;;;;5010396;28;20672;-74
2021/01/17 06:24:36;;;;;;;1.80;1.43;;;9.20;99.90;;;;;;5010884;28;20242;-74
2021/01/17 06:27:04;;;;;;;2.00;1.60;;;9.20;99.90;;;;;;5010695;28;20207;-75
2021/01/17 06:29:36;;;;;;;6.13;1.50;;;9.20;99.90;;;;;;5010662;28;20211;-75
2021/01/17 06:32:13;;;;;;;2.20;1.17;;;9.20;99.90;;;;;;5010538;28;20219;-77
2021/01/17 06:34:44;;;;;;;1.70;1.03;;;9.20;99.90;;;;;;5009352;28;20211;-75
2021/01/17 06:37:11;;;;;;;2.37;1.57;;;9.10;99.90;;;;;;5010401;28;20208;-75
2021/01/17 06:39:43;;;;;;;4.10;1.47;;;9.10;99.90;;;;;;5010565;28;20208;-76
2021/01/17 06:42:12;;;;;;;2.90;1.40;;;9.10;99.90;;;;;;5010596;28;20295;-76
2021/01/17 06:44:38;;;;;;;2.30;1.30;;;9.00;99.90;;;;;;5012638;28;20240;-76
2021/01/17 06:47:13;;;;;;;2.80;1.67;;;8.90;99.90;;;;;;5010637;28;20211;-76
2021/01/17 06:49:39;;;;;;;4.57;1.67;;;8.90;99.90;;;;;;5010562;28;20588;-76
2021/01/17 06:52:08;;;;;;;2.13;1.30;;;8.80;99.90;;;;;;5010412;28;20208;-77
2021/01/17 06:54:36;;;;;;;2.30;1.70;;;8.80;99.90;;;;;;5010470;28;20212;-75
2021/01/17 06:57:04;;;;;;;2.47;1.93;;;8.70;99.90;;;;;;5010044;28;20243;-75
2021/01/17 06:59:34;;;;;;;3.03;1.43;;;8.70;99.90;;;;;;5010696;28;20218;-76
2021/01/17 07:02:44;;;;;;;3.27;1.77;;;8.70;99.90;;;;;;5009876;28;20632;-77
2021/01/17 07:05:36;;;;;;;2.30;1.70;;;8.70;99.90;;;;;;5006406;28;20220;-78
2021/01/17 07:08:46;;;;;;;4.00;1.70;;;8.70;99.90;;;;;;5009755;28;20196;-76
2021/01/17 07:11:21;;;;;;;1.97;1.53;;;8.60;99.90;;;;;;5003987;28;20679;-75
2021/01/17 07:13:50;;;;;;;2.53;1.57;;;8.60;99.90;;;;;;5010157;28;20701;-75
2021/01/17 07:16:34;;;;;;;3.80;2.07;;;8.60;99.90;;;;;;5009981;28;20453;-77
2021/01/17 07:19:08;;;;;;;3.40;1.77;;;8.60;99.90;;;;;;5019977;28;20200;-76
2021/01/17 07:21:39;;;;;;;6.43;2.00;;;8.70;99.90;;;;;;5014115;28;20208;-76
2021/01/17 07:24:08;;;;;;;2.97;1.70;;;8.70;99.90;;;;;;5013455;28;20232;-76
2021/01/17 07:26:49;;;;;;;1.80;1.50;;;8.70;99.90;;;;;;5013382;28;20203;-76
2021/01/17 07:29:19;;;;;;;3.10;1.37;;;8.70;99.90;;;;;;5011737;28;20211;-77
2021/01/17 07:31:47;;;;;;;5.20;1.77;;;8.80;99.90;;;;;;5013368;28;20204;-76
2021/01/17 07:34:14;;;;;;;1.67;1.27;;;8.80;99.90;;;;;;5013493;28;20219;-73
2021/01/17 07:36:49;;;;;;;2.00;1.50;;;8.80;99.90;;;;;;5000264;28;20218;-76
2021/01/17 07:39:20;;;;;;;2.30;1.80;;;8.90;99.90;;;;;;5013941;28;20243;-76
2021/01/17 07:41:48;;;;;;;3.30;1.70;;;8.90;99.90;;;;;;5014218;28;20216;-77
2021/01/17 07:44:17;;;;;;;4.93;2.73;;;8.90;99.90;;;;;;5013696;28;20727;-78
2021/01/17 07:46:45;;;;;;;1.83;1.57;;;8.90;99.90;;;;;;5013746;28;20212;-75
2021/01/17 07:49:13;;;;;;;3.50;2.00;;;8.90;99.90;;;;;;5013848;28;20216;-77
2021/01/17 07:51:40;;;;;;;2.17;1.87;;;8.90;99.90;;;;;;5012641;28;20200;-76
2021/01/17 07:54:17;;;;;;;1.47;1.17;;;8.90;99.90;;;;;;5013704;28;20332;-77
2021/01/17 07:56:46;;;;;;;3.03;1.37;;;9.00;99.90;;;;;;5013551;28;20226;-76
2021/01/17 07:59:12;;;;;;;2.40;1.60;;;9.00;99.90;;;;;;5013423;28;20209;-76
2021/01/17 08:01:46;;;;;;;4.23;1.70;;;9.10;99.90;;;;;;5013431;28;20212;-76
2021/01/17 08:04:27;;;;;;;1.73;1.50;;;9.10;99.90;;;;;;5013165;28;20230;-76
2021/01/17 08:06:55;;;;;;;3.07;1.40;;;9.10;99.90;;;;;;5011800;28;20232;-75
2021/01/17 08:09:48;;;;;;;2.13;1.43;;;9.10;99.90;;;;;;5015062;28;20211;-76
2021/01/17 08:12:41;;;;;;;2.70;1.47;;;9.20;99.90;;;;;;5015421;28;20261;-75
2021/01/17 08:15:29;;;;;;;2.97;1.60;;;9.20;99.90;;;;;;5012922;28;20215;-75
2021/01/17 08:17:57;;;;;;;2.10;0.93;;;9.30;99.90;;;;;;5008103;28;20215;-75
2021/01/17 08:20:33;;;;;;;2.57;1.10;;;9.30;99.90;;;;;;5012944;28;20626;-76
2021/01/17 08:23:11;;;;;;;5.27;1.77;;;9.20;99.90;;;;;;5020079;28;20204;-75
2021/01/17 08:25:55;;;;;;;3.60;1.47;;;9.20;99.90;;;;;;5009844;28;20224;-75
2021/01/17 08:28:33;;;;;;;1.43;0.90;;;9.20;99.90;;;;;;5012138;28;20278;-76
2021/01/17 08:31:00;;;;;;;2.53;1.57;;;9.10;99.90;;;;;;5007058;28;20200;-76
2021/01/17 08:33:27;;;;;;;3.17;1.57;;;9.10;99.90;;;;;;5004510;28;20675;-75
2021/01/17 08:35:55;;;;;;;3.43;2.13;;;9.10;99.90;;;;;;5013333;28;20208;-75
2021/01/17 08:38:22;;;;;;;2.37;1.67;;;9.30;99.90;;;;;;5020615;28;20199;-75
2021/01/17 08:40:51;;;;;;;2.20;1.60;;;9.30;99.90;;;;;;5013411;28;20204;-77
2021/01/17 08:43:18;;;;;;;4.00;1.73;;;9.30;99.90;;;;;;5012685;28;20234;-78
2021/01/17 08:45:47;;;;;;;4.07;2.10;;;9.30;99.90;;;;;;5013103;28;20247;-77
2021/01/17 08:48:31;;;;;;;2.20;2.00;;;9.30;99.90;;;;;;5011576;28;20247;-73
2021/01/17 08:51:20;;;;;;;2.37;1.60;;;9.30;99.90;;;;;;5012139;28;20209;-77
2021/01/17 08:53:46;;;;;;;2.57;1.87;;;9.40;99.90;;;;;;4999020;28;20209;-75
2021/01/17 08:56:21;;;;;;;2.47;1.50;;;9.50;99.90;;;;;;5008581;28;20294;-75
2021/01/17 08:58:50;;;;;;;2.17;1.43;;;9.50;99.90;;;;;;5005600;28;20218;-75
2021/01/17 09:01:18;;;;;;;2.67;1.43;;;9.60;99.90;;;;;;5016644;28;20201;-75
2021/01/17 09:03:55;;;;;;;2.60;2.00;;;9.60;99.90;;;;;;5019612;28;20207;-79
2021/01/17 09:06:27;;;;;;;3.97;1.60;;;9.60;99.90;;;;;;5012801;28;20204;-75
2021/01/17 09:09:14;;;;;;;2.30;1.80;;;9.70;99.90;;;;;;5012610;28;20228;-75
2021/01/17 09:11:42;;;;;;;4.43;1.80;;;9.70;99.90;;;;;;5006027;28;20210;-75
2021/01/17 09:14:16;;;;;;;3.30;2.33;;;9.70;99.90;;;;;;5010510;28;20208;-76
2021/01/17 09:16:45;;;;;;;3.27;1.87;;;9.70;99.90;;;;;;5011506;28;20562;-77
2021/01/17 09:19:13;;;;;;;2.80;1.60;;;9.70;99.90;;;;;;5011797;28;20203;-78
2021/01/17 09:21:40;;;;;;;1.93;1.57;;;9.70;99.90;;;;;;5012085;28;20235;-75
2021/01/17 09:24:11;;;;;;;6.03;2.33;;;9.70;99.90;;;;;;5011460;28;20236;-76
2021/01/17 09:26:40;;;;;;;3.90;2.80;;;9.70;99.90;;;;;;5011105;28;20221;-77
2021/01/17 09:29:06;;;;;;;2.57;2.00;;;9.80;99.90;;;;;;5011332;28;20211;-76
2021/01/17 09:31:35;;;;;;;2.83;2.37;;;9.90;99.90;;;;;;5011517;28;20212;-79
2021/01/17 09:34:02;;;;;;;1.90;1.50;;;10.00;99.90;;;;;;5011361;28;20220;-76
2021/01/17 09:36:29;;;;;;;3.80;1.80;;;9.90;99.90;;;;;;5011270;28;20215;-77
2021/01/17 09:38:56;;;;;;;4.73;2.37;;;9.90;99.90;;;;;;5011450;28;20212;-75
2021/01/17 09:41:24;;;;;;;2.97;1.70;;;10.00;99.90;;;;;;5011313;28;20580;-77
2021/01/17 09:43:51;;;;;;;2.20;1.50;;;10.10;99.90;;;;;;5012295;28;20247;-75
2021/01/17 09:46:23;;;;;;;3.47;2.00;;;10.10;99.90;;;;;;5011279;28;20208;-79
2021/01/17 09:48:58;;;;;;;3.07;1.73;;;10.10;99.90;;;;;;5012135;28;20266;-77
2021/01/17 09:51:28;;;;;;;2.07;1.90;;;10.00;99.90;;;;;;5011682;28;20207;-79
2021/01/17 09:53:56;;;;;;;2.63;1.90;;;10.00;99.90;;;;;;5011385;28;20208;-76
2021/01/17 09:56:23;;;;;;;2.23;1.90;;;10.00;99.90;;;;;;5011553;28;20216;-77
2021/01/17 09:58:50;;;;;;;2.33;1.53;;;9.90;99.90;;;;;;5011830;28;20698;-79
2021/01/17 10:01:20;;;;;;;2.37;2.00;;;9.80;99.90;;;;;;5011190;28;20215;-78
2021/01/17 10:03:47;;;;;;;3.30;2.27;;;9.80;99.90;;;;;;5011060;28;20630;-76
2021/01/17 10:06:15;;;;;;;3.00;1.83;;;9.80;99.90;;;;;;5011058;28;20562;-79
2021/01/17 10:08:42;;;;;;;3.00;2.47;;;9.80;99.90;;;;;;5011050;28;20204;-81
2021/01/17 10:11:09;;;;;;;6.60;2.47;;;9.80;99.90;;;;;;5010570;28;20208;-79
2021/01/17 10:13:36;;;;;;;3.93;2.53;;;9.80;99.90;;;;;;5011021;28;20223;-77
2021/01/17 10:16:02;;;;;;;4.70;2.23;;;9.80;99.90;;;;;;5010614;28;20706;-78
2021/01/17 10:18:29;;;;;;;3.07;1.90;;;9.90;99.90;;;;;;5011186;28;20208;-78
2021/01/17 10:20:56;;;;;;;2.07;1.87;;;9.80;99.90;;;;;;5010774;28;20211;-76
2021/01/17 10:23:30;;;;;;;1.90;1.70;;;9.90;99.90;;;;;;5011476;28;20204;-76
2021/01/17 10:25:57;;;;;;;4.87;2.20;;;9.90;99.90;;;;;;5010658;28;20224;-78
2021/01/17 10:28:26;;;;;;;1.60;1.50;;;10.00;99.90;;;;;;5011360;28;20204;-76
2021/01/17 10:31:00;;;;;;;3.43;2.30;;;10.10;99.90;;;;;;5010818;28;20212;-77
2021/01/17 10:33:30;;;;;;;1.53;1.13;;;10.30;99.90;;;;;;5010710;28;20295;-79
2021/01/17 10:35:56;;;;;;;3.43;1.40;;;10.40;99.90;;;;;;5010420;28;20311;-80
2021/01/17 10:38:23;;;;;;;2.23;1.17;;;10.50;99.90;;;;;;5011237;28;20200;-76
2021/01/17 10:40:51;;;;;;;1.63;1.40;;;10.50;99.90;;;;;;5011413;28;20216;-80
2021/01/17 10:43:29;;;;;;;2.67;1.13;;;10.60;99.90;;;;;;5010271;28;20594;-79
2021/01/17 10:46:03;;;;;;;1.33;1.20;;;10.80;99.90;;;;;;5010379;28;20251;-78
2021/01/17 10:48:33;;;;;;;2.10;1.50;;;11.30;99.90;;;;;;5010832;28;20204;-80
2021/01/17 10:51:02;;;;;;;1.47;0.90;;;11.10;99.90;;;;;;5010721;28;20587;-80
2021/01/17 10:53:34;;;;;;;1.50;1.17;;;11.10;99.90;;;;;;5010021;28;20212;-78
2021/01/17 10:56:01;;;;;;;1.37;1.20;;;11.20;99.90;;;;;;5010415;28;20226;-80
2021/01/17 10:58:32;;;;;;;1.23;0.70;;;11.10;99.90;;;;;;5010170;28;20235;-77
2021/01/17 11:01:00;;;;;;;1.70;0.77;;;11.10;99.90;;;;;;5010445;28;20270;-80
2021/01/17 11:03:29;;;;;;;2.40;0.77;;;11.10;99.90;;;;;;5009462;28;20207;-77
2021/01/17 11:06:10;;;;;;;1.93;1.23;;;11.00;99.90;;;;;;5000599;28;20259;-76
2021/01/17 11:08:42;;;;;;;2.07;0.40;;;10.80;99.90;;;;;;5010409;28;20219;-78
2021/01/17 11:11:09;;;;;;;3.87;1.10;;;10.60;99.90;;;;;;5009912;28;20274;-76
2021/01/17 11:13:37;;;;;;;1.00;0.57;;;10.40;99.90;;;;;;5010401;28;20216;-77
2021/01/17 11:16:04;;;;;;;3.00;1.03;;;10.20;99.90;;;;;;5010313;28;20282;-79
2021/01/17 11:18:31;;;;;;;2.17;1.20;;;10.20;99.90;;;;;;5010206;28;20254;-77
2021/01/17 11:20:58;;;;;;;1.37;0.47;;;10.30;99.90;;;;;;5009769;28;20254;-77
2021/01/17 11:23:26;;;;;;;0.80;0.80;;;10.40;99.90;;;;;;5010314;28;20668;-77
2021/01/17 11:25:57;;;;;;;2.97;1.67;;;10.40;99.90;;;;;;5010247;28;20224;-75
2021/01/17 11:28:26;;;;;;;2.93;1.93;;;10.20;99.90;;;;;;5010418;28;20266;-76
2021/01/17 11:30:53;;;;;;;2.83;2.00;;;9.90;99.90;;;;;;5010604;28;20280;-78
2021/01/17 11:33:26;;;;;;;1.93;1.77;;;9.70;99.90;;;;;;5010758;28;20208;-79
2021/01/17 11:35:52;;;;;;;2.40;2.20;;;9.70;99.90;;;;;;5010474;28;20647;-77
2021/01/17 11:38:19;;;;;;;3.13;1.13;;;9.70;99.90;;;;;;5009972;28;20212;-78
2021/01/17 11:40:45;;;;;;;1.97;1.50;;;9.40;99.90;;;;;;5010588;28;20215;-78
2021/01/17 11:43:13;;;;;;;1.17;0.73;;;9.30;99.90;;;;;;5009399;28;20212;-77
2021/01/17 11:45:42;;;;;;;1.80;0.80;;;9.20;99.90;;;;;;5010179;28;20242;-78
2021/01/17 11:48:10;;;;;;;1.07;0.70;;;9.00;99.90;;;;;;5009704;28;20688;-76
2021/01/17 11:50:42;;;;;;;2.50;0.97;;;9.00;99.90;;;;;;5010325;28;20281;-77
2021/01/17 11:53:09;;;;;;;1.33;0.83;;;9.10;99.90;;;;;;5009676;28;20744;-76
2021/01/17 11:55:36;;;;;;;1.10;0.90;;;9.20;99.90;;;;;;5010151;28;20520;-76
2021/01/17 11:58:10;;;;;;;3.97;0.93;;;9.20;99.90;;;;;;5009550;28;20255;-79
2021/01/17 12:00:51;;;;;;;1.70;1.33;;;9.10;99.90;;;;;;4997537;28;20215;-78
2021/01/17 12:03:23;;;;;;;2.53;0.90;;;9.10;99.90;;;;;;5010227;28;20204;-78
2021/01/17 12:06:01;;;;;;;2.33;0.90;;;9.30;99.90;;;;;;5014067;28;20235;-77
2021/01/17 12:08:51;;;;;;;4.53;1.07;;;9.40;99.90;;;;;;5012687;28;20207;-77
2021/01/17 12:11:38;;;;;;;5.27;2.00;;;9.60;99.90;;;;;;5012731;28;20212;-79
2021/01/17 12:14:07;;;;;;;2.07;1.00;;;9.40;99.90;;;;;;5013061;28;20259;-78
2021/01/17 12:16:36;;;;;;;5.30;2.30;;;9.30;99.90;;;;;;5013688;28;20204;-78
2021/01/17 12:19:05;;;;;;;1.60;0.87;;;9.30;99.90;;;;;;5012629;28;20618;-76
2021/01/17 12:21:32;;;;;;;2.60;1.20;;;9.40;99.90;;;;;;5013301;28;20259;-77
2021/01/17 12:24:00;;;;;;;1.77;0.80;;;9.80;99.90;;;;;;5012437;28;20258;-77
2021/01/17 12:26:27;;;;;;;1.57;1.47;;;10.00;99.90;;;;;;5013305;28;20215;-76
2021/01/17 12:28:53;;;;;;;1.57;0.90;;;9.80;99.90;;;;;;5012490;28;20212;-75
2021/01/17 12:31:22;;;;;;;3.03;1.00;;;10.00;99.90;;;;;;5009526;28;20247;-76
2021/01/17 12:33:48;;;;;;;4.50;1.30;;;10.00;99.90;;;;;;5007330;28;20760;-78
2021/01/17 12:36:19;;;;;;;1.67;1.20;;;10.10;99.90;;;;;;5012097;28;20212;-79
2021/01/17 12:38:46;;;;;;;2.87;1.17;;;10.00;99.90;;;;;;5012811;28;20204;-76
2021/01/17 12:41:14;;;;;;;1.27;0.70;;;9.80;99.90;;;;;;5012325;28;20656;-78
2021/01/17 12:43:41;;;;;;;2.03;0.60;;;9.70;99.90;;;;;;5012560;28;20684;-78
2021/01/17 12:46:08;;;;;;;5.90;1.53;;;9.80;99.90;;;;;;5012158;28;20240;-78
2021/01/17 12:48:35;;;;;;;3.23;1.27;;;10.10;99.90;;;;;;5012346;28;20254;-77
2021/01/17 12:51:02;;;;;;;3.80;1.60;;;10.10;99.90;;;;;;5012145;28;20208;-76
2021/01/17 12:53:30;;;;;;;2.60;1.10;;;10.00;99.90;;;;;;5012584;28;20208;-77
2021/01/17 12:55:56;;;;;;;1.93;1.53;;;10.00;99.90;;;;;;5011879;28;20247;-78
2021/01/17 12:58:23;;;;;;;2.57;1.00;;;10.30;99.90;;;;;;5012515;28;20290;-75
2021/01/17 13:00:49;;;;;;;1.00;0.90;;;10.50;99.90;;;;;;5012679;28;20675;-77
2021/01/17 13:03:16;;;;;;;1.40;0.70;;;10.20;99.90;;;;;;5011729;28;20680;-75
2021/01/17 13:05:42;;;;;;;1.47;0.97;;;10.20;99.90;;;;;;5012012;28;20235;-74